Time;durP1;ratioP1;P1;durP2;ratioP2;P2;SDS_P1;SDS_P2;PMS_P1;PMS_P2;Temp;Humidity;BMP_temperature;BMP_pressure;BME280_temperature;BME280_humidity;BME280_pressure;Samples;Min_cycle;Max_cycle;Signal;HPM_P1;HPM_P2
2023/10/02 00:00:05;;;;;;;1.48;1.13;;;;;;;;;;1021786;29;20055;-24
2023/10/02 00:00:39;;;;;;;0.30;0.30;;;;;;;;;;1021313;29;20058;-25
2023/10/02 00:01:17;;;;;;;0.45;0.40;;;;;;;;;;1020514;29;20500;-25
2023/10/02 00:01:48;;;;;;;1.38;1.27;;;;;;;;;;1021440;29;20029;-25
2023/10/02 00:03:09;;;;;;;;;;;;;;;;;;1019251;29;20023;-25
2023/10/02 00:03:40;;;;;;;0.75;0.75;;;;;;;;;;1021489;29;19910;-25
2023/10/02 00:04:16;;;;;;;0.75;0.75;;;;;;;;;;1021103;29;20039;-25
2023/10/02 00:04:47;;;;;;;1.25;1.15;;;;;;;;;;1021847;29;20030;-24
2023/10/02 00:05:40;;;;;;;0.50;0.50;;;;;;;;;;1021610;29;20028;-25
2023/10/02 00:06:16;;;;;;;2.08;1.88;;;;;;;;;;1021397;29;20079;-23
2023/10/02 00:06:47;;;;;;;0.30;0.30;;;;;;;;;;1021088;29;20484;-24
2023/10/02 00:07:22;;;;;;;2.35;0.68;;;;;;;;;;1020331;29;20490;-25
2023/10/02 00:07:53;;;;;;;1.42;1.33;;;;;;;;;;1021911;29;20038;-24
2023/10/02 00:08:36;;;;;;;0.10;0.10;;;;;;;;;;1021688;29;20113;-25
2023/10/02 00:09:07;;;;;;;2.85;0.52;;;;;;;;;;1019502;29;20027;-24
2023/10/02 00:09:38;;;;;;;0.20;0.20;;;;;;;;;;1021526;29;20024;-25
2023/10/02 00:10:11;;;;;;;1.25;1.20;;;;;;;;;;1021089;29;20166;-24
2023/10/02 00:10:42;;;;;;;0.20;0.20;;;;;;;;;;1021593;29;20104;-24
2023/10/02 00:12:11;;;;;;;1.27;1.17;;;;;;;;;;1021870;29;20376;-24
2023/10/02 00:12:58;;;;;;;1.13;1.13;;;;;;;;;;1020763;29;20023;-26
2023/10/02 00:13:30;;;;;;;0.70;0.70;;;;;;;;;;1021333;29;20077;-25
2023/10/02 00:14:19;;;;;;;0.13;0.13;;;;;;;;;;1021247;29;20484;-24
2023/10/02 00:14:51;;;;;;;1.50;1.40;;;;;;;;;;1021444;29;20023;-25
2023/10/02 00:15:22;;;;;;;0.10;0.10;;;;;;;;;;1020446;29;20397;-25
2023/10/02 00:15:53;;;;;;;0.98;0.57;;;;;;;;;;1020275;29;20073;-25
2023/10/02 00:16:25;;;;;;;0.10;0.10;;;;;;;;;;1020177;29;20032;-25
2023/10/02 00:16:59;;;;;;;1.85;0.52;;;;;;;;;;1021349;29;20571;-24
2023/10/02 00:17:32;;;;;;;0.32;0.32;;;;;;;;;;1021323;29;20110;-24
2023/10/02 00:18:03;;;;;;;0.70;0.47;;;;;;;;;;1021359;29;20032;-26
2023/10/02 00:18:34;;;;;;;0.13;0.13;;;;;;;;;;1021424;29;20032;-25
2023/10/02 00:19:18;;;;;;;0.20;0.20;;;;;;;;;;1021726;29;20023;-25
2023/10/02 00:19:49;;;;;;;0.98;0.98;;;;;;;;;;1021139;29;20035;-23
2023/10/02 00:20:22;;;;;;;0.98;0.98;;;;;;;;;;1019472;29;20023;-24
2023/10/02 00:21:17;;;;;;;1.55;1.50;;;;;;;;;;1021440;29;20084;-25
2023/10/02 00:21:45;;;;;;;0.22;0.15;;;;;;;;;;1020866;29;20415;-25
2023/10/02 00:22:37;;;;;;;0.55;0.22;;;;;;;;;;1020073;29;20072;-25
2023/10/02 00:23:11;;;;;;;0.10;0.10;;;;;;;;;;1021267;29;20027;-25
2023/10/02 00:23:59;;;;;;;0.30;0.30;;;;;;;;;;1021294;29;20527;-25
2023/10/02 00:24:32;;;;;;;1.13;1.02;;;;;;;;;;1021279;28;20067;-24
2023/10/02 00:25:19;;;;;;;0.17;0.17;;;;;;;;;;1021595;29;20035;-25
2023/10/02 00:26:03;;;;;;;0.30;0.28;;;;;;;;;;1022556;29;20033;-24
2023/10/02 00:26:36;;;;;;;0.40;0.40;;;;;;;;;;1021836;29;20403;-25
2023/10/02 00:27:07;;;;;;;0.40;0.40;;;;;;;;;;1021576;29;20058;-25
2023/10/02 00:27:37;;;;;;;0.55;0.55;;;;;;;;;;1021012;29;20024;-25
2023/10/02 00:28:10;;;;;;;1.33;1.23;;;;;;;;;;1022187;29;20115;-25
2023/10/02 00:28:41;;;;;;;9.52;1.00;;;;;;;;;;1022078;29;20023;-24
2023/10/02 00:29:11;;;;;;;0.30;0.30;;;;;;;;;;1022387;29;20127;-25
2023/10/02 00:29:51;;;;;;;1.08;1.08;;;;;;;;;;1022545;29;20078;-25
2023/10/02 00:30:35;;;;;;;1.02;0.88;;;;;;;;;;1022400;29;20035;-25
2023/10/02 00:31:21;;;;;;;0.22;0.22;;;;;;;;;;1021934;29;20118;-25
2023/10/02 00:32:10;;;;;;;0.10;0.10;;;;;;;;;;1022078;29;20019;-25
2023/10/02 00:32:42;;;;;;;0.20;0.20;;;;;;;;;;1017605;29;20399;-24
2023/10/02 00:33:12;;;;;;;2.05;1.52;;;;;;;;;;1017370;29;20462;-25
2023/10/02 00:33:45;;;;;;;0.28;0.28;;;;;;;;;;1017891;29;20036;-25
2023/10/02 00:34:15;;;;;;;0.25;0.25;;;;;;;;;;1017717;29;20024;-25
2023/10/02 00:34:46;;;;;;;1.65;1.48;;;;;;;;;;1022249;29;20118;-24
2023/10/02 00:35:17;;;;;;;1.55;1.45;;;;;;;;;;1014207;29;20069;-24
2023/10/02 00:35:51;;;;;;;0.22;0.20;;;;;;;;;;1014501;29;20119;-25
2023/10/02 00:36:22;;;;;;;0.35;0.35;;;;;;;;;;1014136;29;20555;-25
2023/10/02 00:36:53;;;;;;;0.15;0.15;;;;;;;;;;1015845;29;20087;-25
2023/10/02 00:37:43;;;;;;;1.05;0.60;;;;;;;;;;1020166;29;20115;-24
2023/10/02 00:38:14;;;;;;;0.98;0.98;;;;;;;;;;1021117;29;20380;-25
2023/10/02 00:38:44;;;;;;;1.83;1.70;;;;;;;;;;1022003;29;20035;-24
2023/10/02 00:39:32;;;;;;;1.60;0.50;;;;;;;;;;1020539;29;20032;-24
2023/10/02 00:40:06;;;;;;;0.77;0.77;;;;;;;;;;1020108;29;20024;-24
2023/10/02 00:40:39;;;;;;;0.13;0.13;;;;;;;;;;1021587;29;20028;-24
2023/10/02 00:41:11;;;;;;;0.20;0.20;;;;;;;;;;1021247;29;20124;-25
2023/10/02 00:42:05;;;;;;;1.17;1.08;;;;;;;;;;1021170;29;20438;-26
2023/10/02 00:42:32;;;;;;;1.80;1.20;;;;;;;;;;1020798;29;20027;-25
2023/10/02 00:43:51;;;;;;;0.32;0.32;;;;;;;;;;1021596;29;20031;-24
2023/10/02 00:44:22;;;;;;;0.45;0.45;;;;;;;;;;1021529;29;20431;-24
2023/10/02 00:45:01;;;;;;;1.30;1.02;;;;;;;;;;1022133;29;20030;-24
2023/10/02 00:45:38;;;;;;;0.10;0.10;;;;;;;;;;1022237;29;20053;-25
2023/10/02 00:46:23;;;;;;;0.68;0.68;;;;;;;;;;1022207;29;20047;-25
2023/10/02 00:46:53;;;;;;;0.10;0.10;;;;;;;;;;1021006;29;20036;-25
2023/10/02 00:47:45;;;;;;;0.00;0.00;;;;;;;;;;1020905;29;20023;-24
2023/10/02 00:48:25;;;;;;;0.28;0.28;;;;;;;;;;1021237;29;20066;-25
2023/10/02 00:48:57;;;;;;;0.10;0.10;;;;;;;;;;1022528;29;20024;-25
2023/10/02 00:49:35;;;;;;;2.97;1.15;;;;;;;;;;1022307;29;20063;-25
2023/10/02 00:50:13;;;;;;;1.55;1.45;;;;;;;;;;1022215;29;20476;-25
2023/10/02 00:50:49;;;;;;;1.27;0.77;;;;;;;;;;1022237;29;20563;-24
2023/10/02 00:51:21;;;;;;;1.35;1.05;;;;;;;;;;1020518;29;20118;-25
2023/10/02 00:52:00;;;;;;;0.52;0.52;;;;;;;;;;1022216;29;20020;-25
2023/10/02 00:52:31;;;;;;;0.50;0.50;;;;;;;;;;1019430;29;20080;-24
2023/10/02 00:53:04;;;;;;;1.30;1.15;;;;;;;;;;1021363;29;20110;-24
2023/10/02 00:53:45;;;;;;;0.30;0.30;;;;;;;;;;1021769;29;20401;-25
2023/10/02 00:54:27;;;;;;;0.20;0.20;;;;;;;;;;1021055;29;20019;-24
2023/10/02 00:55:00;;;;;;;0.60;0.60;;;;;;;;;;1021380;29;20448;-24
2023/10/02 00:55:34;;;;;;;1.70;1.60;;;;;;;;;;1022361;29;20432;-25
2023/10/02 00:56:19;;;;;;;1.42;1.27;;;;;;;;;;1022474;29;20023;-24
2023/10/02 00:56:52;;;;;;;0.47;0.30;;;;;;;;;;1016699;29;20161;-24
2023/10/02 00:57:23;;;;;;;0.28;0.28;;;;;;;;;;1017787;29;20060;-25
2023/10/02 00:57:58;;;;;;;0.38;0.35;;;;;;;;;;1016061;29;20590;-25
2023/10/02 00:58:28;;;;;;;0.10;0.10;;;;;;;;;;1017889;29;20102;-24
2023/10/02 00:59:00;;;;;;;5.50;2.28;;;;;;;;;;1020407;29;20028;-25
2023/10/02 00:59:32;;;;;;;0.20;0.20;;;;;;;;;;1020184;29;20023;-25
2023/10/02 01:00:06;;;;;;;0.60;0.60;;;;;;;;;;1022441;29;20023;-25
2023/10/02 01:00:36;;;;;;;0.30;0.30;;;;;;;;;;1021871;29;20027;-25
2023/10/02 01:01:07;;;;;;;0.52;0.52;;;;;;;;;;1021757;29;20155;-25
2023/10/02 01:01:37;;;;;;;0.10;0.10;;;;;;;;;;1022313;29;20023;-25
2023/10/02 01:02:11;;;;;;;0.20;0.20;;;;;;;;;;1022157;29;20130;-24
2023/10/02 01:02:42;;;;;;;15.77;1.65;;;;;;;;;;1020955;29;20055;-24
2023/10/02 01:03:16;;;;;;;0.52;0.52;;;;;;;;;;1021625;29;20397;-24
2023/10/02 01:04:36;;;;;;;0.80;0.80;;;;;;;;;;1019150;29;20020;-25
2023/10/02 01:05:06;;;;;;;0.10;0.10;;;;;;;;;;1021503;29;20019;-22
2023/10/02 01:05:47;;;;;;;0.10;0.10;;;;;;;;;;1022396;29;20122;-24
2023/10/02 01:06:21;;;;;;;0.68;0.68;;;;;;;;;;1018516;29;20031;-24
2023/10/02 01:07:04;;;;;;;2.78;1.17;;;;;;;;;;1014092;29;20050;-25
2023/10/02 01:07:35;;;;;;;1.10;0.70;;;;;;;;;;1015193;29;20023;-25
2023/10/02 01:08:05;;;;;;;0.15;0.15;;;;;;;;;;1015446;29;20560;-25
2023/10/02 01:08:49;;;;;;;0.15;0.15;;;;;;;;;;1018057;29;20059;-25
2023/10/02 01:09:19;;;;;;;1.52;1.42;;;;;;;;;;1018940;29;20539;-25
2023/10/02 01:10:08;;;;;;;0.75;0.73;;;;;;;;;;1019771;29;20028;-25
2023/10/02 01:10:40;;;;;;;0.20;0.20;;;;;;;;;;1020032;29;20031;-24
2023/10/02 01:11:13;;;;;;;0.50;0.50;;;;;;;;;;1019313;29;20031;-25
2023/10/02 01:11:45;;;;;;;0.65;0.30;;;;;;;;;;1020045;29;20027;-24
2023/10/02 01:12:18;;;;;;;0.15;0.15;;;;;;;;;;1021692;29;20031;-24
2023/10/02 01:12:53;;;;;;;0.95;0.80;;;;;;;;;;1020397;29;20058;-24
2023/10/02 01:13:34;;;;;;;0.13;0.13;;;;;;;;;;1021051;29;20090;-25
2023/10/02 01:14:05;;;;;;;0.32;0.32;;;;;;;;;;1021556;29;20035;-25
2023/10/02 01:15:38;;;;;;;0.10;0.10;;;;;;;;;;1016108;29;20503;-24
2023/10/02 01:16:09;;;;;;;12.43;1.13;;;;;;;;;;1016850;29;20133;-24
2023/10/02 01:16:50;;;;;;;0.47;0.47;;;;;;;;;;1018641;29;20023;-24
2023/10/02 01:17:21;;;;;;;0.10;0.10;;;;;;;;;;1019995;29;20503;-24
2023/10/02 01:17:52;;;;;;;0.73;0.60;;;;;;;;;;1019275;29;20515;-24
2023/10/02 01:18:29;;;;;;;0.17;0.17;;;;;;;;;;1020843;29;20036;-22
2023/10/02 01:19:01;;;;;;;0.25;0.25;;;;;;;;;;1019339;29;20035;-25
2023/10/02 01:19:52;;;;;;;0.00;0.00;;;;;;;;;;1020616;29;20475;-23
2023/10/02 01:20:38;;;;;;;0.05;0.05;;;;;;;;;;1020140;29;20031;-24
2023/10/02 01:21:11;;;;;;;0.00;0.00;;;;;;;;;;1019911;29;20443;-23
2023/10/02 01:21:42;;;;;;;3.30;2.42;;;;;;;;;;1016813;29;20039;-25
2023/10/02 01:22:26;;;;;;;0.52;0.45;;;;;;;;;;1018274;29;20519;-25
2023/10/02 01:23:11;;;;;;;0.38;0.38;;;;;;;;;;1020135;29;20065;-25
2023/10/02 01:24:07;;;;;;;2.20;0.70;;;;;;;;;;1020634;29;20036;-25
2023/10/02 01:24:38;;;;;;;0.20;0.20;;;;;;;;;;1014791;29;20063;-25
2023/10/02 01:25:15;;;;;;;0.10;0.10;;;;;;;;;;1015119;29;20031;-25
2023/10/02 01:25:47;;;;;;;0.95;0.95;;;;;;;;;;1015766;29;20404;-25
2023/10/02 01:26:18;;;;;;;0.15;0.15;;;;;;;;;;1015190;29;20036;-25
2023/10/02 01:26:50;;;;;;;1.50;1.40;;;;;;;;;;1019143;29;20446;-24
2023/10/02 01:27:22;;;;;;;0.10;0.10;;;;;;;;;;1018992;29;20039;-24
2023/10/02 01:27:55;;;;;;;0.75;0.75;;;;;;;;;;1020147;29;20030;-24
2023/10/02 01:28:49;;;;;;;0.30;0.20;;;;;;;;;;1017943;29;20172;-25
2023/10/02 01:29:19;;;;;;;1.10;1.02;;;;;;;;;;1017453;29;20362;-23
2023/10/02 01:30:14;;;;;;;1.10;1.05;;;;;;;;;;1018827;29;20338;-25
2023/10/02 01:30:47;;;;;;;0.15;0.15;;;;;;;;;;1020267;29;20039;-25
2023/10/02 01:32:26;;;;;;;0.17;0.17;;;;;;;;;;1007408;29;20605;-25
2023/10/02 01:33:40;;;;;;;3.60;1.15;;;;;;;;;;1014997;29;20577;-24
2023/10/02 01:35:04;;;;;;;0.98;0.68;;;;;;;;;;1020370;29;20030;-25
2023/10/02 01:35:36;;;;;;;0.40;0.40;;;;;;;;;;1020621;29;20038;-24
2023/10/02 01:36:09;;;;;;;0.30;0.30;;;;;;;;;;1015322;29;20090;-25
2023/10/02 01:36:41;;;;;;;1.30;1.20;;;;;;;;;;1013160;29;20031;-24
2023/10/02 01:38:01;;;;;;;0.50;0.47;;;;;;;;;;1019473;29;20028;-25
2023/10/02 01:38:33;;;;;;;0.52;0.30;;;;;;;;;;1020993;29;20538;-25
2023/10/02 01:39:14;;;;;;;0.95;0.60;;;;;;;;;;1018494;29;20027;-25
2023/10/02 01:39:46;;;;;;;0.60;0.60;;;;;;;;;;1016315;29;20071;-25
2023/10/02 01:40:34;;;;;;;4.57;0.52;;;;;;;;;;1015366;29;20119;-26
2023/10/02 01:41:09;;;;;;;0.20;0.20;;;;;;;;;;1014613;29;20027;-25
2023/10/02 01:41:41;;;;;;;7.78;3.75;;;;;;;;;;1018826;29;20035;-25
2023/10/02 01:42:14;;;;;;;0.88;0.88;;;;;;;;;;1019441;29;20027;-25
2023/10/02 01:42:47;;;;;;;0.73;0.70;;;;;;;;;;1014506;29;20939;-25
2023/10/02 01:43:20;;;;;;;0.20;0.20;;;;;;;;;;1016156;29;20515;-24
2023/10/02 01:43:55;;;;;;;0.30;0.30;;;;;;;;;;1019497;29;20388;-24
2023/10/02 01:44:25;;;;;;;1.55;0.90;;;;;;;;;;1019607;29;20031;-25
2023/10/02 01:44:57;;;;;;;0.38;0.38;;;;;;;;;;1019498;29;20402;-25
2023/10/02 01:45:34;;;;;;;2.38;1.50;;;;;;;;;;1020491;29;20384;-25
2023/10/02 01:46:07;;;;;;;1.50;1.40;;;;;;;;;;1013522;29;21136;-25
2023/10/02 01:46:49;;;;;;;7.85;1.73;;;;;;;;;;1014868;29;20036;-25
2023/10/02 01:47:20;;;;;;;0.10;0.10;;;;;;;;;;1015085;29;20044;-25
2023/10/02 01:47:51;;;;;;;0.47;0.47;;;;;;;;;;1016979;29;20028;-25
2023/10/02 01:49:24;;;;;;;0.70;0.52;;;;;;;;;;1018660;29;20023;-24
2023/10/02 01:50:00;;;;;;;1.35;1.17;;;;;;;;;;1020318;29;20035;-25
2023/10/02 01:50:30;;;;;;;1.77;1.65;;;;;;;;;;1019354;29;20070;-25
2023/10/02 01:51:15;;;;;;;0.75;0.75;;;;;;;;;;1018997;29;20082;-24
2023/10/02 01:51:50;;;;;;;1.75;0.65;;;;;;;;;;1019872;29;20103;-24
2023/10/02 01:52:20;;;;;;;0.38;0.35;;;;;;;;;;1019297;29;20039;-24
2023/10/02 01:52:57;;;;;;;3.97;1.80;;;;;;;;;;1020476;29;20547;-25
2023/10/02 01:53:33;;;;;;;0.90;0.90;;;;;;;;;;1020485;29;20119;-25
2023/10/02 01:54:15;;;;;;;0.98;0.82;;;;;;;;;;1017728;29;20074;-25
2023/10/02 01:54:51;;;;;;;0.47;0.47;;;;;;;;;;1017019;29;20091;-23
2023/10/02 01:55:29;;;;;;;0.60;0.60;;;;;;;;;;1017993;29;20038;-24
2023/10/02 01:56:11;;;;;;;0.10;0.10;;;;;;;;;;1019253;29;20039;-25
2023/10/02 01:56:45;;;;;;;0.20;0.20;;;;;;;;;;1020024;29;20114;-23
2023/10/02 01:57:24;;;;;;;4.05;1.55;;;;;;;;;;1019065;29;20054;-25
2023/10/02 01:57:55;;;;;;;4.90;1.70;;;;;;;;;;1021380;29;20032;-25
2023/10/02 01:58:27;;;;;;;0.10;0.10;;;;;;;;;;1016902;29;20038;-25
2023/10/02 01:59:11;;;;;;;0.20;0.20;;;;;;;;;;1014876;29;20055;-25
2023/10/02 01:59:45;;;;;;;0.35;0.35;;;;;;;;;;1015080;29;20032;-23
2023/10/02 02:00:23;;;;;;;0.25;0.25;;;;;;;;;;1015794;29;20047;-25
2023/10/02 02:00:54;;;;;;;0.25;0.25;;;;;;;;;;1016528;29;20500;-24
2023/10/02 02:01:26;;;;;;;0.63;0.63;;;;;;;;;;1016213;29;20067;-24
2023/10/02 02:01:58;;;;;;;3.13;0.85;;;;;;;;;;1015713;29;20074;-24
2023/10/02 02:02:28;;;;;;;0.10;0.10;;;;;;;;;;1017558;29;20549;-25
2023/10/02 02:03:17;;;;;;;5.53;1.20;;;;;;;;;;1017691;29;20039;-25
2023/10/02 02:03:49;;;;;;;1.00;0.52;;;;;;;;;;1018588;29;20436;-24
2023/10/02 02:04:33;;;;;;;2.20;0.50;;;;;;;;;;1018108;29;20039;-24
2023/10/02 02:05:04;;;;;;;1.65;0.57;;;;;;;;;;1017887;29;20522;-24
2023/10/02 02:05:34;;;;;;;1.75;1.65;;;;;;;;;;1017778;29;20040;-26
2023/10/02 02:06:11;;;;;;;1.23;1.20;;;;;;;;;;1018162;29;20016;-25
2023/10/02 02:06:54;;;;;;;0.40;0.40;;;;;;;;;;1018251;29;20038;-25
2023/10/02 02:07:25;;;;;;;0.20;0.20;;;;;;;;;;1018716;29;20039;-25
2023/10/02 02:07:55;;;;;;;0.52;0.50;;;;;;;;;;1020129;29;21163;-25
2023/10/02 02:08:26;;;;;;;1.08;0.70;;;;;;;;;;1018172;29;20054;-25
2023/10/02 02:08:58;;;;;;;0.35;0.35;;;;;;;;;;1019404;29;20616;-25
2023/10/02 02:09:43;;;;;;;0.28;0.28;;;;;;;;;;1011407;29;20034;-25
2023/10/02 02:10:15;;;;;;;0.75;0.75;;;;;;;;;;1010783;29;20060;-25
2023/10/02 02:10:46;;;;;;;0.47;0.45;;;;;;;;;;1013885;29;20067;-25
2023/10/02 02:11:20;;;;;;;0.25;0.25;;;;;;;;;;1016452;29;20060;-25
2023/10/02 02:12:07;;;;;;;1.38;0.47;;;;;;;;;;1014569;29;20224;-25
2023/10/02 02:12:44;;;;;;;0.52;0.52;;;;;;;;;;1018289;29;20042;-25
2023/10/02 02:13:16;;;;;;;0.13;0.13;;;;;;;;;;1015812;29;20040;-25
2023/10/02 02:13:48;;;;;;;0.73;0.73;;;;;;;;;;1017825;29;20040;-24
2023/10/02 02:14:19;;;;;;;0.32;0.32;;;;;;;;;;1019474;29;20538;-24
2023/10/02 02:14:49;;;;;;;0.50;0.50;;;;;;;;;;1021164;29;20031;-24
2023/10/02 02:15:20;;;;;;;0.47;0.47;;;;;;;;;;1018488;29;20046;-25
2023/10/02 02:15:51;;;;;;;0.47;0.40;;;;;;;;;;1018363;29;20031;-24
2023/10/02 02:16:25;;;;;;;0.30;0.30;;;;;;;;;;1020102;29;20122;-25
2023/10/02 02:16:55;;;;;;;1.55;1.05;;;;;;;;;;1019393;29;20290;-25
2023/10/02 02:17:27;;;;;;;9.85;0.82;;;;;;;;;;1019540;29;20111;-24
2023/10/02 02:17:59;;;;;;;2.95;2.45;;;;;;;;;;1018777;29;20090;-24
2023/10/02 02:18:31;;;;;;;1.10;1.08;;;;;;;;;;1018842;29;20085;-25
2023/10/02 02:19:05;;;;;;;0.73;0.73;;;;;;;;;;1017901;29;20036;-24
2023/10/02 02:19:47;;;;;;;0.20;0.20;;;;;;;;;;1017895;29;20078;-23
2023/10/02 02:20:43;;;;;;;0.20;0.20;;;;;;;;;;1016837;29;20037;-25
2023/10/02 02:21:18;;;;;;;16.05;0.88;;;;;;;;;;1017408;29;20029;-23
2023/10/02 02:21:49;;;;;;;2.80;2.17;;;;;;;;;;1017384;29;20454;-24
2023/10/02 02:22:26;;;;;;;0.00;0.00;;;;;;;;;;1014817;29;20047;-25
2023/10/02 02:23:07;;;;;;;0.52;0.52;;;;;;;;;;1017756;29;20038;-25
2023/10/02 02:23:37;;;;;;;0.30;0.30;;;;;;;;;;1018322;29;20031;-25
2023/10/02 02:24:08;;;;;;;2.38;0.75;;;;;;;;;;1019320;29;20365;-25
2023/10/02 02:24:38;;;;;;;1.02;1.00;;;;;;;;;;1018533;29;20032;-25
2023/10/02 02:25:09;;;;;;;2.30;1.63;;;;;;;;;;1018704;29;20057;-24
2023/10/02 02:25:40;;;;;;;0.50;0.50;;;;;;;;;;1018873;29;20400;-24
2023/10/02 02:26:10;;;;;;;0.75;0.63;;;;;;;;;;1017111;29;20070;-25
2023/10/02 02:26:41;;;;;;;0.70;0.70;;;;;;;;;;1017172;29;20098;-25
2023/10/02 02:27:12;;;;;;;3.30;1.65;;;;;;;;;;1019758;29;20019;-25
2023/10/02 02:27:46;;;;;;;1.40;1.25;;;;;;;;;;1012935;29;20032;-23
2023/10/02 02:28:17;;;;;;;0.00;0.00;;;;;;;;;;1014872;29;20103;-24
2023/10/02 02:28:51;;;;;;;4.97;1.02;;;;;;;;;;1016385;29;20106;-25
2023/10/02 02:29:23;;;;;;;4.28;0.52;;;;;;;;;;1016075;29;20032;-23
2023/10/02 02:29:57;;;;;;;1.10;1.00;;;;;;;;;;1018456;29;20038;-25
2023/10/02 02:30:29;;;;;;;1.23;1.13;;;;;;;;;;1015788;29;20032;-25
2023/10/02 02:31:03;;;;;;;0.30;0.30;;;;;;;;;;1014725;29;20035;-24
2023/10/02 02:31:34;;;;;;;0.60;0.50;;;;;;;;;;1009761;29;20172;-24
2023/10/02 02:32:07;;;;;;;0.25;0.22;;;;;;;;;;1014552;29;20028;-24
2023/10/02 02:32:44;;;;;;;1.45;1.35;;;;;;;;;;1018851;29;20027;-25
2023/10/02 02:33:15;;;;;;;0.80;0.80;;;;;;;;;;1018261;29;20023;-24
2023/10/02 02:33:46;;;;;;;1.48;1.38;;;;;;;;;;1019716;29;20027;-24
2023/10/02 02:34:17;;;;;;;0.52;0.38;;;;;;;;;;1016759;29;20082;-25
2023/10/02 02:34:48;;;;;;;0.10;0.10;;;;;;;;;;1019028;29;20427;-25
2023/10/02 02:35:21;;;;;;;2.97;1.45;;;;;;;;;;1018503;29;20463;-25
2023/10/02 02:36:05;;;;;;;0.20;0.20;;;;;;;;;;1019828;29;20019;-25
2023/10/02 02:36:36;;;;;;;0.60;0.45;;;;;;;;;;1018037;29;20114;-25
2023/10/02 02:37:06;;;;;;;0.00;0.00;;;;;;;;;;1018407;29;20074;-25
2023/10/02 02:37:39;;;;;;;0.45;0.45;;;;;;;;;;1018088;29;20106;-24
2023/10/02 02:38:15;;;;;;;2.05;0.85;;;;;;;;;;1017434;29;20498;-24
2023/10/02 02:38:48;;;;;;;0.73;0.52;;;;;;;;;;1017087;29;20583;-25
2023/10/02 02:39:22;;;;;;;0.77;0.55;;;;;;;;;;1012956;29;20032;-24
2023/10/02 02:39:52;;;;;;;3.47;1.13;;;;;;;;;;1015719;29;20408;-24
2023/10/02 02:40:25;;;;;;;1.23;0.82;;;;;;;;;;1010192;29;20088;-25
2023/10/02 02:41:05;;;;;;;0.32;0.32;;;;;;;;;;1014715;29;20036;-25
2023/10/02 02:41:35;;;;;;;0.10;0.10;;;;;;;;;;1013675;29;20032;-25
2023/10/02 02:42:09;;;;;;;12.93;0.98;;;;;;;;;;1016037;29;20123;-25
2023/10/02 02:42:41;;;;;;;1.55;1.48;;;;;;;;;;1015277;29;20114;-25
2023/10/02 02:43:19;;;;;;;0.80;0.75;;;;;;;;;;1013701;29;20074;-24
2023/10/02 02:43:51;;;;;;;4.88;1.50;;;;;;;;;;1011696;29;20079;-25
2023/10/02 02:44:39;;;;;;;12.18;3.70;;;;;;;;;;1013173;29;20032;-25
2023/10/02 02:45:24;;;;;;;1.13;1.08;;;;;;;;;;1013691;29;20028;-25
2023/10/02 02:45:56;;;;;;;0.82;0.82;;;;;;;;;;1012582;29;20027;-25
2023/10/02 02:46:29;;;;;;;2.80;2.30;;;;;;;;;;1012845;29;20497;-26
2023/10/02 02:47:07;;;;;;;0.20;0.20;;;;;;;;;;1017836;29;20048;-26
2023/10/02 02:47:51;;;;;;;1.40;1.00;;;;;;;;;;1013454;29;20035;-26
2023/10/02 02:48:43;;;;;;;2.20;1.00;;;;;;;;;;1014263;29;20042;-26
2023/10/02 02:49:19;;;;;;;1.65;0.65;;;;;;;;;;1015735;29;20099;-25
2023/10/02 02:49:52;;;;;;;1.20;1.10;;;;;;;;;;1009887;29;20115;-25
2023/10/02 02:50:28;;;;;;;0.10;0.10;;;;;;;;;;1009215;29;20096;-25
2023/10/02 02:51:14;;;;;;;0.30;0.30;;;;;;;;;;1010424;29;20068;-23
2023/10/02 02:51:48;;;;;;;1.38;1.27;;;;;;;;;;1010648;29;20085;-24
2023/10/02 02:52:27;;;;;;;3.50;2.67;;;;;;;;;;1006896;29;20846;-25
2023/10/02 02:53:21;;;;;;;0.15;0.15;;;;;;;;;;1010177;29;20381;-25
2023/10/02 02:53:55;;;;;;;0.10;0.10;;;;;;;;;;1014254;29;20055;-24
2023/10/02 02:54:34;;;;;;;6.80;2.10;;;;;;;;;;1016114;29;20425;-24
2023/10/02 02:55:15;;;;;;;0.95;0.88;;;;;;;;;;1009278;29;20325;-24
2023/10/02 02:56:22;;;;;;;0.25;0.17;;;;;;;;;;1009811;29;20028;-25
2023/10/02 02:57:00;;;;;;;1.05;0.80;;;;;;;;;;1009923;29;20036;-25
2023/10/02 02:57:53;;;;;;;0.45;0.45;;;;;;;;;;1013020;29;20040;-24
2023/10/02 02:58:25;;;;;;;2.63;1.73;;;;;;;;;;1011597;29;20366;-24
2023/10/02 02:59:01;;;;;;;0.90;0.63;;;;;;;;;;1009412;29;20036;-26
2023/10/02 02:59:38;;;;;;;0.45;0.45;;;;;;;;;;1005850;29;20428;-26
2023/10/02 03:00:29;;;;;;;0.32;0.32;;;;;;;;;;1009056;29;20494;-26
2023/10/02 03:01:21;;;;;;;0.22;0.22;;;;;;;;;;1012490;29;20024;-24
2023/10/02 03:02:08;;;;;;;;;;;;;;;;;;1012719;29;20117;-25
2023/10/02 03:02:41;;;;;;;6.45;2.17;;;;;;;;;;1012989;29;20223;-25
2023/10/02 03:04:13;;;;;;;2.65;1.75;;;;;;;;;;1016150;29;20032;-24
2023/10/02 03:04:45;;;;;;;11.70;0.85;;;;;;;;;;1016351;29;20095;-24
2023/10/02 03:05:20;;;;;;;3.92;2.47;;;;;;;;;;1014764;29;20107;-23
2023/10/02 03:05:58;;;;;;;0.70;0.55;;;;;;;;;;1013037;29;20028;-26
2023/10/02 03:06:32;;;;;;;0.65;0.65;;;;;;;;;;1012898;29;20424;-26
2023/10/02 03:07:36;;;;;;;2.53;1.38;;;;;;;;;;1015387;29;20032;-23
2023/10/02 03:08:19;;;;;;;0.20;0.20;;;;;;;;;;1015120;29;20567;-24
2023/10/02 03:08:54;;;;;;;1.27;0.65;;;;;;;;;;1011940;29;20047;-25
2023/10/02 03:09:30;;;;;;;0.22;0.22;;;;;;;;;;1012517;29;20043;-22
2023/10/02 03:10:02;;;;;;;1.45;1.35;;;;;;;;;;1009819;29;20028;-25
2023/10/02 03:10:46;;;;;;;1.05;0.82;;;;;;;;;;1010732;29;20020;-25
2023/10/02 03:11:35;;;;;;;1.63;1.40;;;;;;;;;;1003676;29;20048;-25
2023/10/02 03:12:11;;;;;;;3.05;2.28;;;;;;;;;;1002638;29;20567;-24
2023/10/02 03:12:49;;;;;;;0.15;0.15;;;;;;;;;;1004288;29;20152;-24
2023/10/02 03:13:29;;;;;;;1.00;0.75;;;;;;;;;;1012099;29;20031;-25
2023/10/02 03:14:14;;;;;;;;;;;;;;;;;;1016286;29;20061;-25
2023/10/02 03:14:54;;;;;;;2.15;1.27;;;;;;;;;;1017538;29;20212;-25
2023/10/02 03:15:49;;;;;;;8.60;0.80;;;;;;;;;;1015290;28;20606;-25
2023/10/02 03:16:45;;;;;;;1.20;1.10;;;;;;;;;;1016834;29;20036;-25
2023/10/02 03:17:31;;;;;;;2.85;2.08;;;;;;;;;;1007236;29;20840;-24
2023/10/02 03:18:22;;;;;;;0.82;0.65;;;;;;;;;;1008199;29;20039;-25
2023/10/02 03:18:55;;;;;;;2.55;2.35;;;;;;;;;;1009078;29;20123;-25
2023/10/02 03:19:34;;;;;;;0.98;0.98;;;;;;;;;;1009287;29;20028;-25
2023/10/02 03:20:24;;;;;;;0.40;0.40;;;;;;;;;;1008830;29;20036;-25
2023/10/02 03:20:57;;;;;;;2.92;0.95;;;;;;;;;;1007385;29;20485;-25
2023/10/02 03:21:34;;;;;;;2.05;1.95;;;;;;;;;;1008949;29;20607;-26
2023/10/02 03:22:08;;;;;;;1.13;1.02;;;;;;;;;;1004832;29;20473;-24
2023/10/02 03:22:51;;;;;;;0.47;0.43;;;;;;;;;;1003700;29;20417;-25
2023/10/02 03:23:27;;;;;;;0.20;0.20;;;;;;;;;;1004167;29;20033;-25
2023/10/02 03:24:25;;;;;;;0.15;0.15;;;;;;;;;;1006580;29;20067;-25
2023/10/02 03:25:24;;;;;;;0.17;0.17;;;;;;;;;;1003948;29;20029;-25
2023/10/02 03:25:55;;;;;;;0.20;0.20;;;;;;;;;;1005493;29;20029;-25
2023/10/02 03:27:08;;;;;;;5.78;1.95;;;;;;;;;;1000469;29;20733;-25
2023/10/02 03:27:40;;;;;;;4.10;1.95;;;;;;;;;;1008855;29;20032;-25
2023/10/02 03:28:28;;;;;;;2.03;1.92;;;;;;;;;;1005647;29;20054;-24
2023/10/02 03:29:01;;;;;;;0.52;0.52;;;;;;;;;;999608;29;20081;-24
2023/10/02 03:29:36;;;;;;;2.15;1.98;;;;;;;;;;996381;29;20049;-26
2023/10/02 03:30:09;;;;;;;18.05;1.75;;;;;;;;;;1001375;29;20029;-24
2023/10/02 03:30:43;;;;;;;17.80;1.38;;;;;;;;;;1001665;29;20534;-25
2023/10/02 03:31:20;;;;;;;1.30;1.20;;;;;;;;;;998770;29;20200;-24
2023/10/02 03:32:05;;;;;;;1.98;1.27;;;;;;;;;;1002436;29;20051;-25
2023/10/02 03:32:45;;;;;;;2.20;1.83;;;;;;;;;;1004946;29;20136;-25
2023/10/02 03:33:20;;;;;;;0.20;0.20;;;;;;;;;;1008674;29;20068;-25
2023/10/02 03:33:54;;;;;;;0.52;0.52;;;;;;;;;;1003906;29;20035;-25
2023/10/02 03:34:28;;;;;;;2.38;1.85;;;;;;;;;;1008362;29;20032;-25
2023/10/02 03:35:02;;;;;;;10.65;0.65;;;;;;;;;;1006135;29;20029;-24
2023/10/02 03:35:41;;;;;;;0.55;0.55;;;;;;;;;;1010025;29;20039;-24
2023/10/02 03:36:20;;;;;;;0.35;0.35;;;;;;;;;;1008564;29;20144;-24
2023/10/02 03:36:54;;;;;;;1.45;0.77;;;;;;;;;;1009500;29;20033;-24
2023/10/02 03:37:30;;;;;;;0.32;0.32;;;;;;;;;;1008565;29;20706;-24
2023/10/02 03:38:04;;;;;;;1.92;0.75;;;;;;;;;;1010858;29;20124;-25
2023/10/02 03:38:48;;;;;;;1.20;1.05;;;;;;;;;;1007472;29;20236;-25
2023/10/02 03:40:20;;;;;;;2.00;1.48;;;;;;;;;;1002813;29;20174;-25
2023/10/02 03:40:56;;;;;;;8.73;1.83;;;;;;;;;;998361;29;20516;-24
2023/10/02 03:41:44;;;;;;;0.90;0.90;;;;;;;;;;1005794;29;20033;-25
2023/10/02 03:42:14;;;;;;;1.45;1.35;;;;;;;;;;1004866;29;20101;-24
2023/10/02 03:42:47;;;;;;;34.28;2.63;;;;;;;;;;1005613;29;20703;-26
2023/10/02 03:43:34;;;;;;;1.83;1.73;;;;;;;;;;1007218;29;20119;-24
2023/10/02 03:44:07;;;;;;;1.60;0.47;;;;;;;;;;1009191;29;20584;-24
2023/10/02 03:44:45;;;;;;;0.80;0.43;;;;;;;;;;1008791;29;20083;-25
2023/10/02 03:45:38;;;;;;;0.35;0.32;;;;;;;;;;1005965;29;20546;-24
2023/10/02 03:46:22;;;;;;;2.78;1.58;;;;;;;;;;1007703;29;20161;-24
2023/10/02 03:47:00;;;;;;;0.20;0.20;;;;;;;;;;1008631;29;20036;-23
2023/10/02 03:47:35;;;;;;;12.60;2.58;;;;;;;;;;1003978;29;20067;-24
2023/10/02 03:48:07;;;;;;;1.88;1.58;;;;;;;;;;1006035;29;20401;-24
2023/10/02 03:48:41;;;;;;;1.85;1.50;;;;;;;;;;1002610;29;20056;-23
2023/10/02 03:49:18;;;;;;;3.03;1.25;;;;;;;;;;1003121;29;20592;-25
2023/10/02 03:49:50;;;;;;;1.65;1.38;;;;;;;;;;999517;29;20021;-21